Storm Events Database

Event Details

Event Thunderstorm Wind
Magnitude 43 kts.
State TEXAS
County/Area COLLIN
WFO FWD
Report Source Trained Spotter
NCDC Data Source CSV
Begin Date 2012-06-06 15:30:00.0 CST-6
Begin Location 2SSW FOREST GROVE
Begin Lat/Lon 33.09/-96.63
End Date 2012-06-06 15:30:00.0 CST-6
Deaths Direct/Indirect 0/0 (fatality details below, when available...)
Injuries Direct/Indirect 0/0
Property Damage 3.00K
Crop Damage 0.00K
Episode Narrative Severe thunderstorms developed along an outflow boundary across the northwestern counties of the CWA. Additional severe thunderstorms developed along the outflow boundaries from these initial storms. Downburst winds produced relatively minor damage along the path of these storms but one downburst tore the roof off an apartment building in Fort Worth. Hail up to the size of quarters was reported but hen egg sized hail was reported in Denton County. In addition, lightning damaged a theatre in Carrollton and the Hill County Law Enforcement Center in Hillsboro.
Event Narrative Several fences and medium trees were down in the area around Malone Road and Bethany Dr in Allen.


     ‚Äč



All events for this episode:

Location County/Zone St. Date Time T.Z. Type Mag Dth Inj PrD CrD
Totals: 0 0 468.61K 0.00K
LAKE BRIDGEPORT WISE CO. TX 06/06/2012 12:30 CST-6 Hail 1.00 in. 0 0 0.00K 0.00K
CENTER PT TARRANT CO. TX 06/06/2012 13:15 CST-6 Thunderstorm Wind 65 kts. EG 0 0 50.00K 0.00K
LAKE DALLAS DENTON CO. TX 06/06/2012 14:17 CST-6 Hail 1.00 in. 0 0 0.00K 0.00K
PLANO COLLIN CO. TX 06/06/2012 14:50 CST-6 Hail 0.75 in. 0 0 0.00K 0.00K
ROCKWALL ROCKWALL CO. TX 06/06/2012 14:53 CST-6 Hail 1.00 in. 0 0 0.00K 0.00K
IRVING DALLAS CO. TX 06/06/2012 15:00 CST-6 Hail 1.00 in. 0 0 0.00K 0.00K
NAVO DENTON CO. TX 06/06/2012 15:07 CST-6 Hail 2.00 in. 0 0 20.00K 0.00K
SEMINARY HILL TARRANT CO. TX 06/06/2012 15:10 CST-6 Thunderstorm Wind 52 kts. EG 0 0 5.00K 0.00K
FRISCO COLLIN CO. TX 06/06/2012 15:12 CST-6 Hail 1.50 in. 0 0 0.00K 0.00K
FRISCO COLLIN CO. TX 06/06/2012 15:15 CST-6 Hail 0.75 in. 0 0 0.00K 0.00K
FT WORTH TARRANT CO. TX 06/06/2012 15:15 CST-6 Thunderstorm Wind 61 kts. EG 0 0 100.00K 0.00K
JOSHUA JOHNSON CO. TX 06/06/2012 15:15 CST-6 Hail 1.00 in. 0 0 0.00K 0.00K
SHERMAN GRAYSON CO. TX 06/06/2012 15:20 CST-6 Hail 0.88 in. 0 0 0.00K 0.00K
DENISON GRAYSON CO. TX 06/06/2012 15:24 CST-6 Hail 0.75 in. 0 0 0.00K 0.00K
FOREST GROVE COLLIN CO. TX 06/06/2012 15:30 CST-6 Thunderstorm Wind 43 kts. EG 0 0 3.00K 0.00K
FOOT COLLIN CO. TX 06/06/2012 15:35 CST-6 Thunderstorm Wind 52 kts. EG 0 0 5.00K 0.00K
KENNEDALE TARRANT CO. TX 06/06/2012 15:38 CST-6 Thunderstorm Wind 56 kts. EG 0 0 5.00K 0.00K
EAST DALLAS DALLAS CO. TX 06/06/2012 15:50 CST-6 Hail 0.88 in. 0 0 0.00K 0.00K
EAST DALLAS DALLAS CO. TX 06/06/2012 15:50 CST-6 Thunderstorm Wind 52 kts. EG 0 0 5.00K 0.00K
WYLIE COLLIN CO. TX 06/06/2012 15:50 CST-6 Hail 1.00 in. 0 0 0.00K 0.00K
HIGHLAND PARK DALLAS CO. TX 06/06/2012 16:08 CST-6 Hail 0.75 in. 0 0 0.00K 0.00K
HEBRON DENTON CO. TX 06/06/2012 16:10 CST-6 Lightning 0 0 60.00K 0.00K
MESQUITE DALLAS CO. TX 06/06/2012 16:13 CST-6 Hail 0.75 in. 0 0 0.00K 0.00K
GARLAND DALLAS CO. TX 06/06/2012 16:15 CST-6 Hail 0.75 in. 0 0 0.00K 0.00K
CARNEY DENTON CO. TX 06/06/2012 17:20 CST-6 Lightning 0 0 70.00K 0.00K
CORSICANA NAVARRO CO. TX 06/06/2012 17:50 CST-6 Thunderstorm Wind 56 kts. EG 0 0 5.00K 0.00K
CORSICANA NAVARRO CO. TX 06/06/2012 17:50 CST-6 Hail 0.75 in. 0 0 0.00K 0.00K
GRAND PRAIRIE DALLAS CO. TX 06/06/2012 18:00 CST-6 Lightning 0 0 30.00K 0.00K
PANTEGO TARRANT CO. TX 06/06/2012 18:00 CST-6 Lightning 0 0 30.00K 0.00K
WILLS PT VAN ZANDT CO. TX 06/06/2012 18:15 CST-6 Thunderstorm Wind 48 kts. EG 0 0 12.00K 0.00K
CENTERVILLE LEON CO. TX 06/06/2012 21:10 CST-6 Hail 0.75 in. 0 0 0.00K 0.00K
HILLSBORO HILL CO. TX 06/07/2012 02:00 CST-6 Lightning 0 0 68.61K 0.00K
Totals: 0 0 468.61K 0.00K